Time;durP1;ratioP1;P1;durP2;ratioP2;P2;SDS_P1;SDS_P2;PMS_P1;PMS_P2;Temp;Humidity;BMP_temperature;BMP_pressure;BME280_temperature;BME280_humidity;BME280_pressure;Samples;Min_cycle;Max_cycle;Signal;HPM_P1;HPM_P2
2022/05/22 00:01:41;;;;;;;4.15;2.60;;;;;;;;;;5088892;28;20038;-59
2022/05/22 00:04:10;;;;;;;3.85;3.13;;;;;;;;;;5089855;28;20027;-59
2022/05/22 00:06:36;;;;;;;5.55;3.42;;;;;;;;;;5089767;28;20507;-60
2022/05/22 00:09:01;;;;;;;4.05;2.70;;;;;;;;;;5089207;28;20028;-59
2022/05/22 00:11:27;;;;;;;5.82;3.15;;;;;;;;;;5091708;28;20016;-59
2022/05/22 00:13:53;;;;;;;7.55;3.30;;;;;;;;;;5091794;28;20020;-59
2022/05/22 00:16:36;;;;;;;4.95;3.10;;;;;;;;;;5089692;28;20032;-60
2022/05/22 00:19:16;;;;;;;4.60;2.95;;;;;;;;;;5087891;28;20379;-59
2022/05/22 00:21:42;;;;;;;4.40;3.13;;;;;;;;;;5085319;28;20314;-60
2022/05/22 00:24:10;;;;;;;3.88;3.03;;;;;;;;;;5092669;28;20070;-59
2022/05/22 00:26:35;;;;;;;4.07;3.10;;;;;;;;;;5089491;28;20039;-59
2022/05/22 00:29:01;;;;;;;4.55;3.00;;;;;;;;;;5089315;28;20438;-58
2022/05/22 00:31:27;;;;;;;4.15;2.92;;;;;;;;;;5087628;28;20370;-60
2022/05/22 00:33:52;;;;;;;4.18;3.17;;;;;;;;;;5088750;28;20031;-59
2022/05/22 00:36:18;;;;;;;3.28;2.97;;;;;;;;;;5088383;28;20024;-59
2022/05/22 00:38:43;;;;;;;4.15;3.17;;;;;;;;;;5088503;28;20467;-59
2022/05/22 00:41:10;;;;;;;3.83;3.03;;;;;;;;;;5086520;28;20016;-59
2022/05/22 00:43:37;;;;;;;5.95;3.22;;;;;;;;;;5088483;28;20142;-59
2022/05/22 00:46:06;;;;;;;4.85;2.83;;;;;;;;;;5088779;28;20039;-60
2022/05/22 00:48:32;;;;;;;3.85;3.08;;;;;;;;;;5088260;28;20028;-59
2022/05/22 00:51:09;;;;;;;6.22;3.30;;;;;;;;;;5081125;28;20028;-58
2022/05/22 00:53:41;;;;;;;4.60;3.35;;;;;;;;;;5086816;28;20035;-58
2022/05/22 00:56:12;;;;;;;3.80;3.00;;;;;;;;;;5085563;28;20429;-58
2022/05/22 00:58:38;;;;;;;5.45;3.03;;;;;;;;;;5090178;28;20093;-59
2022/05/22 01:01:04;;;;;;;3.60;3.20;;;;;;;;;;5088459;28;20427;-60
2022/05/22 01:03:31;;;;;;;5.90;3.25;;;;;;;;;;5088046;28;20101;-60
2022/05/22 01:06:07;;;;;;;7.82;3.38;;;;;;;;;;5087660;28;20111;-58
2022/05/22 01:08:34;;;;;;;4.88;3.25;;;;;;;;;;5087602;28;20058;-59
2022/05/22 01:11:07;;;;;;;5.93;3.30;;;;;;;;;;5090902;28;20114;-58
2022/05/22 01:13:39;;;;;;;5.50;3.38;;;;;;;;;;5090396;28;20019;-59
2022/05/22 01:16:05;;;;;;;4.60;3.13;;;;;;;;;;5087977;28;20032;-59
2022/05/22 01:18:43;;;;;;;6.43;3.20;;;;;;;;;;5090882;28;20038;-59
2022/05/22 01:21:16;;;;;;;5.35;3.50;;;;;;;;;;5086757;28;20502;-59
2022/05/22 01:23:42;;;;;;;4.35;3.40;;;;;;;;;;5090784;28;20046;-60
2022/05/22 01:26:07;;;;;;;5.75;3.58;;;;;;;;;;5091664;28;20438;-59
2022/05/22 01:28:33;;;;;;;5.07;3.50;;;;;;;;;;5088256;28;20145;-59
2022/05/22 01:31:00;;;;;;;3.72;3.10;;;;;;;;;;5086618;28;20012;-59
2022/05/22 01:33:26;;;;;;;5.43;3.50;;;;;;;;;;5086396;28;20040;-60
2022/05/22 01:35:51;;;;;;;6.15;3.60;;;;;;;;;;5087658;28;20051;-58
2022/05/22 01:38:17;;;;;;;6.22;3.58;;;;;;;;;;5088471;28;20031;-59
2022/05/22 01:40:42;;;;;;;5.35;3.40;;;;;;;;;;5089047;28;20016;-59
2022/05/22 01:43:08;;;;;;;5.72;3.47;;;;;;;;;;5087410;28;20471;-59
2022/05/22 01:45:33;;;;;;;5.20;3.70;;;;;;;;;;5094285;28;20066;-59
2022/05/22 01:47:59;;;;;;;4.43;3.28;;;;;;;;;;5088260;28;20395;-59
2022/05/22 01:50:25;;;;;;;5.60;4.65;;;;;;;;;;5088151;28;20509;-59
2022/05/22 01:52:50;;;;;;;7.38;3.47;;;;;;;;;;5087528;28;20028;-59
2022/05/22 01:55:16;;;;;;;5.18;3.60;;;;;;;;;;5087267;28;20081;-59
2022/05/22 01:57:41;;;;;;;5.18;3.40;;;;;;;;;;5087640;28;20060;-59
2022/05/22 02:00:11;;;;;;;6.55;3.83;;;;;;;;;;5087262;28;20073;-59
2022/05/22 02:02:36;;;;;;;4.70;3.53;;;;;;;;;;5087396;28;20478;-59
2022/05/22 02:05:05;;;;;;;5.72;3.42;;;;;;;;;;5089737;28;20040;-59
2022/05/22 02:10:15;;;;;;;3.65;3.35;;;;;;;;;;5093648;28;20051;-58
2022/05/22 02:12:40;;;;;;;4.88;3.30;;;;;;;;;;5090713;28;20036;-58
2022/05/22 02:15:07;;;;;;;6.30;3.33;;;;;;;;;;5091864;28;20035;-59
2022/05/22 02:17:32;;;;;;;4.03;3.08;;;;;;;;;;5096254;28;20039;-60
2022/05/22 02:19:58;;;;;;;3.42;3.13;;;;;;;;;;5095307;28;20080;-60
2022/05/22 02:22:24;;;;;;;3.95;3.55;;;;;;;;;;5093334;28;20284;-60
2022/05/22 02:24:50;;;;;;;5.57;3.45;;;;;;;;;;5089785;28;20042;-60
2022/05/22 02:27:16;;;;;;;5.90;3.10;;;;;;;;;;5091107;28;20082;-60
2022/05/22 02:29:41;;;;;;;9.55;3.63;;;;;;;;;;5093220;28;20490;-60
2022/05/22 02:32:07;;;;;;;5.80;3.50;;;;;;;;;;5090417;28;20490;-60
2022/05/22 02:34:33;;;;;;;5.82;3.30;;;;;;;;;;5090974;28;20450;-60
2022/05/22 02:36:59;;;;;;;4.88;3.33;;;;;;;;;;5091015;28;20056;-60
2022/05/22 02:39:25;;;;;;;5.05;3.20;;;;;;;;;;5091400;28;20023;-59
2022/05/22 02:41:50;;;;;;;4.35;2.70;;;;;;;;;;5089597;28;20031;-60
2022/05/22 02:44:16;;;;;;;4.03;3.63;;;;;;;;;;5091095;28;20063;-59
2022/05/22 02:46:42;;;;;;;3.50;3.20;;;;;;;;;;5091399;28;20077;-60
2022/05/22 02:49:08;;;;;;;7.97;3.15;;;;;;;;;;5091188;28;20387;-59
2022/05/22 02:51:34;;;;;;;5.88;3.25;;;;;;;;;;5087938;28;20031;-59
2022/05/22 02:53:59;;;;;;;4.15;3.22;;;;;;;;;;5090449;28;20028;-59
2022/05/22 02:56:27;;;;;;;5.38;3.53;;;;;;;;;;5091474;28;20061;-59
2022/05/22 02:58:52;;;;;;;4.50;3.40;;;;;;;;;;5091106;28;20036;-58
2022/05/22 03:01:18;;;;;;;5.30;3.30;;;;;;;;;;5090680;28;20028;-59
2022/05/22 03:03:43;;;;;;;9.27;3.78;;;;;;;;;;5089652;28;20043;-59
2022/05/22 03:08:53;;;;;;;8.25;4.00;;;;;;;;;;5090416;28;20057;-60
2022/05/22 03:11:18;;;;;;;6.15;4.10;;;;;;;;;;5091767;28;20037;-60
2022/05/22 03:13:44;;;;;;;7.80;3.90;;;;;;;;;;5090036;28;20044;-60
2022/05/22 03:16:09;;;;;;;5.63;3.60;;;;;;;;;;5090890;28;20213;-59
2022/05/22 03:18:35;;;;;;;4.75;3.40;;;;;;;;;;5089773;28;20036;-59
2022/05/22 03:21:00;;;;;;;3.92;3.40;;;;;;;;;;5090545;28;20036;-59
2022/05/22 03:23:26;;;;;;;5.22;3.10;;;;;;;;;;5089305;28;20053;-60
2022/05/22 03:25:51;;;;;;;5.82;3.75;;;;;;;;;;5090588;28;20053;-59
2022/05/22 03:28:17;;;;;;;3.83;3.38;;;;;;;;;;5085522;28;20028;-60
2022/05/22 03:30:43;;;;;;;5.75;4.00;;;;;;;;;;5088490;28;20031;-60
2022/05/22 03:33:09;;;;;;;5.18;3.78;;;;;;;;;;5091818;28;20118;-60
2022/05/22 03:35:35;;;;;;;6.47;3.90;;;;;;;;;;5095846;28;20513;-60
2022/05/22 03:38:02;;;;;;;4.35;3.63;;;;;;;;;;5085689;28;20028;-60
2022/05/22 03:40:28;;;;;;;6.25;4.10;;;;;;;;;;5093871;28;20123;-60
2022/05/22 03:42:53;;;;;;;5.80;4.22;;;;;;;;;;5089287;28;20157;-60
2022/05/22 03:45:22;;;;;;;6.13;4.00;;;;;;;;;;5089945;28;20027;-60
2022/05/22 03:47:47;;;;;;;8.13;3.97;;;;;;;;;;5090779;28;20077;-60
2022/05/22 03:50:13;;;;;;;5.30;4.10;;;;;;;;;;5087755;28;20062;-60
2022/05/22 03:52:42;;;;;;;7.43;4.65;;;;;;;;;;5088747;28;20483;-61
2022/05/22 03:55:10;;;;;;;6.07;4.05;;;;;;;;;;5089862;28;20313;-60
2022/05/22 03:57:36;;;;;;;5.55;3.90;;;;;;;;;;5089409;28;20425;-60
2022/05/22 04:00:08;;;;;;;9.40;4.78;;;;;;;;;;5089396;28;20028;-60
2022/05/22 04:02:34;;;;;;;5.38;4.30;;;;;;;;;;5090040;28;20036;-59
2022/05/22 04:05:00;;;;;;;5.00;4.20;;;;;;;;;;5088933;28;20035;-60
2022/05/22 04:07:25;;;;;;;7.00;4.00;;;;;;;;;;5092747;28;20225;-59
2022/05/22 04:09:51;;;;;;;4.32;3.92;;;;;;;;;;5090753;28;20027;-60
2022/05/22 04:12:16;;;;;;;5.43;3.85;;;;;;;;;;5091542;28;20457;-60
2022/05/22 04:14:43;;;;;;;4.47;4.07;;;;;;;;;;5088747;28;20051;-59
2022/05/22 04:17:09;;;;;;;5.10;4.13;;;;;;;;;;5088381;28;20028;-60
2022/05/22 04:19:36;;;;;;;4.50;4.10;;;;;;;;;;5088871;28;20390;-60
2022/05/22 04:22:02;;;;;;;4.97;4.25;;;;;;;;;;5088583;28;20031;-60
2022/05/22 04:27:12;;;;;;;6.28;4.72;;;;;;;;;;5089095;28;20034;-59
2022/05/22 04:29:38;;;;;;;5.30;4.63;;;;;;;;;;5088138;28;20538;-59
2022/05/22 04:32:04;;;;;;;6.15;4.47;;;;;;;;;;5088127;28;20432;-60
2022/05/22 04:34:29;;;;;;;4.85;4.38;;;;;;;;;;5089181;28;20463;-59
2022/05/22 04:36:55;;;;;;;6.40;4.68;;;;;;;;;;5093763;28;20038;-58
2022/05/22 04:39:20;;;;;;;5.72;4.60;;;;;;;;;;5094544;28;20139;-60
2022/05/22 04:41:45;;;;;;;6.35;4.88;;;;;;;;;;5088648;28;20028;-60
2022/05/22 04:44:11;;;;;;;9.02;5.07;;;;;;;;;;5088461;28;20046;-60
2022/05/22 04:46:36;;;;;;;6.47;5.15;;;;;;;;;;5088352;28;20020;-60
2022/05/22 04:49:02;;;;;;;6.25;5.15;;;;;;;;;;5088394;28;20043;-60
2022/05/22 04:51:27;;;;;;;7.22;5.30;;;;;;;;;;5086175;28;20551;-59
2022/05/22 04:53:53;;;;;;;6.28;5.13;;;;;;;;;;5088296;28;20111;-59
2022/05/22 04:56:19;;;;;;;5.97;5.18;;;;;;;;;;5090282;28;20059;-59
2022/05/22 04:58:45;;;;;;;6.78;5.18;;;;;;;;;;5087257;28;20110;-59
2022/05/22 05:01:11;;;;;;;5.70;4.93;;;;;;;;;;5088508;28;20545;-59
2022/05/22 05:03:36;;;;;;;6.75;5.43;;;;;;;;;;5088190;28;20067;-60
2022/05/22 05:06:03;;;;;;;5.35;4.50;;;;;;;;;;5089456;28;20119;-59
2022/05/22 05:08:29;;;;;;;12.10;5.50;;;;;;;;;;5087563;28;20031;-59
2022/05/22 05:10:56;;;;;;;6.68;4.75;;;;;;;;;;5089464;28;20024;-59
2022/05/22 05:13:23;;;;;;;7.05;5.05;;;;;;;;;;5088346;28;20028;-59
2022/05/22 05:16:07;;;;;;;11.68;5.50;;;;;;;;;;5087280;28;20085;-58
2022/05/22 05:18:35;;;;;;;6.88;5.40;;;;;;;;;;5084844;28;20085;-59
2022/05/22 05:21:04;;;;;;;7.57;5.45;;;;;;;;;;5088551;28;20020;-59
2022/05/22 05:23:29;;;;;;;6.63;5.63;;;;;;;;;;5087672;28;20494;-59
2022/05/22 05:25:55;;;;;;;7.35;5.45;;;;;;;;;;5092471;28;20028;-59
2022/05/22 05:28:20;;;;;;;8.20;5.93;;;;;;;;;;5089768;28;20364;-58
2022/05/22 05:30:46;;;;;;;8.55;5.75;;;;;;;;;;5087926;28;20077;-59
2022/05/22 05:33:11;;;;;;;7.25;4.97;;;;;;;;;;5088409;28;20036;-59
2022/05/22 05:35:37;;;;;;;7.47;6.05;;;;;;;;;;5093704;28;20024;-59
2022/05/22 05:38:03;;;;;;;6.43;5.55;;;;;;;;;;5092730;28;20038;-59
2022/05/22 05:40:29;;;;;;;8.57;5.47;;;;;;;;;;5086133;28;20028;-58
2022/05/22 05:42:55;;;;;;;8.02;5.57;;;;;;;;;;5091371;28;20042;-60
2022/05/22 05:45:20;;;;;;;8.38;6.28;;;;;;;;;;5091940;28;20427;-59
2022/05/22 05:47:47;;;;;;;6.80;5.50;;;;;;;;;;5093580;28;20449;-59
2022/05/22 05:50:15;;;;;;;7.90;5.75;;;;;;;;;;5092506;28;20501;-60
2022/05/22 05:52:41;;;;;;;7.85;5.93;;;;;;;;;;5089181;28;20052;-60
2022/05/22 05:55:07;;;;;;;9.48;5.50;;;;;;;;;;5092817;28;20039;-60
2022/05/22 05:57:34;;;;;;;6.03;5.07;;;;;;;;;;5092535;28;20050;-60
2022/05/22 05:59:59;;;;;;;8.05;5.55;;;;;;;;;;5093484;28;21487;-59
2022/05/22 06:02:24;;;;;;;9.05;5.78;;;;;;;;;;5089914;28;20035;-59
2022/05/22 06:04:50;;;;;;;12.00;6.55;;;;;;;;;;5093728;28;20030;-59
2022/05/22 06:07:16;;;;;;;8.20;5.70;;;;;;;;;;5087396;28;20464;-59
2022/05/22 06:09:41;;;;;;;10.60;5.45;;;;;;;;;;5093524;28;20016;-58
2022/05/22 06:12:07;;;;;;;7.32;5.03;;;;;;;;;;5091549;28;20036;-59
2022/05/22 06:14:32;;;;;;;7.20;5.72;;;;;;;;;;5091556;28;20028;-59
2022/05/22 06:16:58;;;;;;;6.93;5.28;;;;;;;;;;5089594;28;20032;-58
2022/05/22 06:22:08;;;;;;;8.48;5.72;;;;;;;;;;5089867;28;20035;-59
2022/05/22 06:24:35;;;;;;;9.38;5.65;;;;;;;;;;5089603;28;20436;-59
2022/05/22 06:27:01;;;;;;;8.70;5.30;;;;;;;;;;5090365;28;20289;-59
2022/05/22 06:29:26;;;;;;;7.70;5.55;;;;;;;;;;5090633;28;20062;-59
2022/05/22 06:31:51;;;;;;;11.35;5.55;;;;;;;;;;5089979;28;20028;-59
2022/05/22 06:34:17;;;;;;;11.80;7.82;;;;;;;;;;5091752;28;20111;-59
2022/05/22 06:36:42;;;;;;;13.05;6.50;;;;;;;;;;5089587;28;20067;-59
2022/05/22 06:41:52;;;;;;;9.50;6.00;;;;;;;;;;5090585;28;20034;-59
2022/05/22 06:44:17;;;;;;;9.05;5.55;;;;;;;;;;5089951;28;20028;-59
2022/05/22 06:46:42;;;;;;;10.13;5.13;;;;;;;;;;5089716;28;20351;-62
2022/05/22 06:49:08;;;;;;;7.30;5.20;;;;;;;;;;5089862;28;20031;-60
2022/05/22 06:51:33;;;;;;;6.72;4.80;;;;;;;;;;5088763;28;20455;-60
2022/05/22 06:53:59;;;;;;;7.47;4.80;;;;;;;;;;5090786;28;20107;-60
2022/05/22 06:56:24;;;;;;;7.60;5.82;;;;;;;;;;5090231;28;20396;-59
2022/05/22 06:58:50;;;;;;;9.35;5.53;;;;;;;;;;5090353;28;20099;-60
2022/05/22 07:01:16;;;;;;;9.02;5.57;;;;;;;;;;5089618;28;20035;-60
2022/05/22 07:03:42;;;;;;;8.95;5.53;;;;;;;;;;5092547;28;20043;-59
2022/05/22 07:06:07;;;;;;;6.22;5.40;;;;;;;;;;5092330;28;20413;-59
2022/05/22 07:08:33;;;;;;;7.88;5.38;;;;;;;;;;5090729;28;20452;-60
2022/05/22 07:13:42;;;;;;;6.88;5.25;;;;;;;;;;5090145;28;20089;-59
2022/05/22 07:16:08;;;;;;;10.88;5.28;;;;;;;;;;5090100;28;20471;-59
2022/05/22 07:18:34;;;;;;;9.60;6.20;;;;;;;;;;5090282;28;20240;-59
2022/05/22 07:21:00;;;;;;;8.70;5.72;;;;;;;;;;5088247;28;20059;-60
2022/05/22 07:23:25;;;;;;;7.38;4.85;;;;;;;;;;5087573;28;20036;-60
2022/05/22 07:25:53;;;;;;;9.52;5.03;;;;;;;;;;5089909;28;20035;-60
2022/05/22 07:28:19;;;;;;;6.28;5.30;;;;;;;;;;5090177;28;20051;-60
2022/05/22 07:30:45;;;;;;;6.88;4.80;;;;;;;;;;5089583;28;20028;-60
2022/05/22 07:33:11;;;;;;;11.73;5.50;;;;;;;;;;5088903;28;20371;-60
2022/05/22 07:35:36;;;;;;;7.65;4.78;;;;;;;;;;5089837;28;20392;-60
2022/05/22 07:38:02;;;;;;;8.73;5.03;;;;;;;;;;5089348;28;20107;-60
2022/05/22 07:40:29;;;;;;;10.98;4.60;;;;;;;;;;5087154;28;20073;-62
2022/05/22 07:42:54;;;;;;;9.18;5.10;;;;;;;;;;5087669;28;20055;-59
2022/05/22 07:45:20;;;;;;;9.07;4.55;;;;;;;;;;5089686;28;20020;-59
2022/05/22 08:05:37;;;;;;;6.85;4.88;;;;;;;;;;5065689;27;20483;-59
2022/05/22 08:08:03;;;;;;;6.25;4.78;;;;;;;;;;5064617;28;20498;-59
2022/05/22 08:10:28;;;;;;;15.95;5.63;;;;;;;;;;5063518;28;20471;-60
2022/05/22 08:12:54;;;;;;;14.35;5.18;;;;;;;;;;5071900;28;20025;-60
2022/05/22 08:15:22;;;;;;;11.18;5.28;;;;;;;;;;5062508;28;20081;-60
2022/05/22 08:17:48;;;;;;;8.50;5.07;;;;;;;;;;5060034;28;20056;-60
2022/05/22 08:20:17;;;;;;;18.48;4.80;;;;;;;;;;5066152;28;20063;-60
2022/05/22 08:22:46;;;;;;;9.80;4.75;;;;;;;;;;5066034;28;20033;-60
2022/05/22 08:25:15;;;;;;;11.68;4.50;;;;;;;;;;5063858;28;20071;-63
2022/05/22 08:27:41;;;;;;;10.45;4.50;;;;;;;;;;5063500;28;20491;-60
2022/05/22 08:30:09;;;;;;;14.90;3.95;;;;;;;;;;5064076;28;20091;-60
2022/05/22 08:32:38;;;;;;;8.20;4.68;;;;;;;;;;5068119;28;20075;-61
2022/05/22 08:35:06;;;;;;;5.40;4.22;;;;;;;;;;5064082;28;20033;-59
2022/05/22 08:37:33;;;;;;;6.50;4.32;;;;;;;;;;5058947;28;20086;-59
2022/05/22 08:39:59;;;;;;;11.05;4.30;;;;;;;;;;5069207;28;20059;-59
2022/05/22 08:42:48;;;;;;;7.68;4.22;;;;;;;;;;5062084;28;20044;-59
2022/05/22 08:45:21;;;;;;;6.10;4.45;;;;;;;;;;5058570;28;20043;-60
2022/05/22 08:48:06;;;;;;;5.47;4.30;;;;;;;;;;5060740;28;20025;-60
2022/05/22 08:50:33;;;;;;;6.90;3.92;;;;;;;;;;5059838;28;20032;-60
2022/05/22 08:53:05;;;;;;;7.47;3.70;;;;;;;;;;5060437;28;20024;-59
2022/05/22 09:01:17;;;;;;;5.80;3.35;;;;;;;;;;5058834;28;20047;-60
2022/05/22 09:03:53;;;;;;;5.25;3.30;;;;;;;;;;5064362;28;20028;-60
2022/05/22 09:06:27;;;;;;;4.55;2.70;;;;;;;;;;5050968;28;20036;-60
2022/05/22 09:08:53;;;;;;;8.35;3.90;;;;;;;;;;5048681;28;20483;-60
2022/05/22 09:11:36;;;;;;;5.50;2.40;;;;;;;;;;5051169;28;20025;-60
2022/05/22 09:14:09;;;;;;;3.50;2.08;;;;;;;;;;5049507;28;20509;-60
2022/05/22 09:16:59;;;;;;;3.22;2.33;;;;;;;;;;5043486;28;20041;-60
2022/05/22 09:19:31;;;;;;;3.20;2.38;;;;;;;;;;5047943;28;20078;-59
2022/05/22 09:22:21;;;;;;;4.38;2.80;;;;;;;;;;5047253;28;20107;-60
2022/05/22 09:24:57;;;;;;;3.35;3.03;;;;;;;;;;5050987;28;20024;-59
2022/05/22 09:27:28;;;;;;;4.45;3.20;;;;;;;;;;5052121;28;20033;-59
2022/05/22 09:30:03;;;;;;;5.68;2.80;;;;;;;;;;5053475;28;20040;-59
2022/05/22 09:32:43;;;;;;;5.57;2.92;;;;;;;;;;5054502;28;20107;-59
2022/05/22 09:35:09;;;;;;;2.72;2.40;;;;;;;;;;5047945;28;20017;-59
2022/05/22 09:37:49;;;;;;;4.22;2.38;;;;;;;;;;5047077;28;20041;-61
2022/05/22 09:40:44;;;;;;;3.40;2.30;;;;;;;;;;5049884;28;20044;-58
2022/05/22 09:43:34;;;;;;;7.22;2.45;;;;;;;;;;5054540;28;20404;-59
2022/05/22 09:46:09;;;;;;;4.75;2.50;;;;;;;;;;5051524;28;20367;-60
2022/05/22 09:49:06;;;;;;;4.88;2.55;;;;;;;;;;5051861;28;20025;-61
2022/05/22 09:52:18;;;;;;;3.13;1.95;;;;;;;;;;5048748;28;20032;-59
2022/05/22 09:55:02;;;;;;;3.22;2.28;;;;;;;;;;5047993;28;20489;-59
2022/05/22 09:57:30;;;;;;;2.80;2.00;;;;;;;;;;5047691;28;20186;-60
2022/05/22 10:00:13;;;;;;;5.78;2.28;;;;;;;;;;5050300;28;20029;-59
2022/05/22 10:02:58;;;;;;;3.63;2.17;;;;;;;;;;5048725;28;20455;-59
2022/05/22 10:05:29;;;;;;;3.92;2.28;;;;;;;;;;5046764;28;20041;-59
2022/05/22 10:08:02;;;;;;;4.75;2.70;;;;;;;;;;5050787;28;20029;-60
2022/05/22 10:10:31;;;;;;;4.03;2.22;;;;;;;;;;5050962;28;20086;-60
2022/05/22 10:13:08;;;;;;;5.78;2.35;;;;;;;;;;5050194;28;20112;-59
2022/05/22 10:15:48;;;;;;;4.10;2.08;;;;;;;;;;5048423;28;20115;-60
2022/05/22 10:18:46;;;;;;;3.78;1.63;;;;;;;;;;5049735;28;20029;-60
2022/05/22 10:21:29;;;;;;;3.88;2.70;;;;;;;;;;5051760;28;20492;-60
2022/05/22 10:23:57;;;;;;;4.38;2.00;;;;;;;;;;5051574;28;20082;-60
2022/05/22 10:26:42;;;;;;;3.50;1.67;;;;;;;;;;5046871;28;20025;-61
2022/05/22 10:29:35;;;;;;;2.88;2.03;;;;;;;;;;5053016;28;20244;-61
2022/05/22 10:32:07;;;;;;;3.60;2.22;;;;;;;;;;5048083;28;20462;-61
2022/05/22 10:34:33;;;;;;;5.22;2.03;;;;;;;;;;5047341;28;20090;-60
2022/05/22 10:37:12;;;;;;;7.18;2.47;;;;;;;;;;5054416;28;20012;-58
2022/05/22 10:39:37;;;;;;;;;;;;;;;;;;5045038;28;20029;-61
2022/05/22 10:45:21;;;;;;;3.78;1.60;;;;;;;;;;5049062;28;20450;-59
2022/05/22 10:47:47;;;;;;;2.38;1.60;;;;;;;;;;5055482;28;20483;-59
2022/05/22 10:50:23;;;;;;;2.30;1.48;;;;;;;;;;5051230;28;20083;-59
2022/05/22 10:52:49;;;;;;;5.05;1.80;;;;;;;;;;5059122;28;20020;-59
2022/05/22 10:55:31;;;;;;;2.55;1.65;;;;;;;;;;5046350;28;20442;-59
2022/05/22 10:58:04;;;;;;;3.22;1.60;;;;;;;;;;5047020;28;20067;-60
2022/05/22 11:00:30;;;;;;;2.67;1.48;;;;;;;;;;5044576;28;20029;-59
2022/05/22 11:02:56;;;;;;;3.60;1.45;;;;;;;;;;5047530;28;20028;-59
2022/05/22 11:05:25;;;;;;;3.40;1.60;;;;;;;;;;5045338;28;20029;-59
2022/05/22 11:07:53;;;;;;;2.80;1.33;;;;;;;;;;5045931;28;20155;-59
2022/05/22 11:10:25;;;;;;;1.98;1.42;;;;;;;;;;5048457;28;20051;-60
2022/05/22 11:13:06;;;;;;;2.85;1.20;;;;;;;;;;5048489;28;20029;-60
2022/05/22 11:15:39;;;;;;;2.20;1.40;;;;;;;;;;5049061;28;20037;-60
2022/05/22 11:18:19;;;;;;;1.52;1.42;;;;;;;;;;5047911;28;20033;-61
2022/05/22 11:20:50;;;;;;;2.78;1.55;;;;;;;;;;5050830;28;20024;-61
2022/05/22 11:23:48;;;;;;;3.97;1.70;;;;;;;;;;5052019;28;20048;-61
2022/05/22 11:26:51;;;;;;;2.90;1.70;;;;;;;;;;5046975;28;20032;-61
2022/05/22 11:29:34;;;;;;;3.72;1.30;;;;;;;;;;5051392;28;20028;-61
2022/05/22 11:32:21;;;;;;;3.47;1.45;;;;;;;;;;5052421;28;20025;-61
2022/05/22 11:34:56;;;;;;;2.30;1.42;;;;;;;;;;5047797;28;20191;-61
2022/05/22 11:37:35;;;;;;;2.17;1.40;;;;;;;;;;5048797;28;20025;-61
2022/05/22 11:40:29;;;;;;;3.08;1.52;;;;;;;;;;5052992;28;20031;-61
2022/05/22 11:43:24;;;;;;;3.03;1.95;;;;;;;;;;5049743;28;20604;-60
2022/05/22 11:46:05;;;;;;;2.28;1.60;;;;;;;;;;5045568;28;20033;-62
2022/05/22 11:48:52;;;;;;;2.25;1.60;;;;;;;;;;5044730;28;20060;-61
2022/05/22 11:51:35;;;;;;;1.77;1.50;;;;;;;;;;5044357;28;20064;-60
2022/05/22 11:54:31;;;;;;;2.38;1.40;;;;;;;;;;5041168;28;20025;-61
2022/05/22 11:57:34;;;;;;;1.70;1.35;;;;;;;;;;5041931;28;20087;-61
2022/05/22 12:00:03;;;;;;;3.45;1.85;;;;;;;;;;5040192;28;20094;-60
2022/05/22 12:02:47;;;;;;;3.17;1.60;;;;;;;;;;5046401;28;20376;-61
2022/05/22 12:05:30;;;;;;;2.53;1.42;;;;;;;;;;5043780;28;20032;-61
2022/05/22 12:08:23;;;;;;;2.45;1.38;;;;;;;;;;5048652;28;20028;-61
2022/05/22 12:11:11;;;;;;;3.47;1.40;;;;;;;;;;5045232;28;20039;-63
2022/05/22 12:14:06;;;;;;;2.55;1.38;;;;;;;;;;5046105;28;20033;-61
2022/05/22 12:16:41;;;;;;;3.53;1.20;;;;;;;;;;5048765;28;20093;-62
2022/05/22 12:19:20;;;;;;;4.60;1.30;;;;;;;;;;5049254;28;20076;-62
2022/05/22 12:22:04;;;;;;;3.10;1.10;;;;;;;;;;5048186;28;20334;-60
2022/05/22 12:24:46;;;;;;;4.75;1.27;;;;;;;;;;5049716;28;20039;-60
2022/05/22 12:27:21;;;;;;;3.30;1.45;;;;;;;;;;5046651;28;20039;-62
2022/05/22 12:30:11;;;;;;;2.30;1.40;;;;;;;;;;5055722;28;20025;-62
2022/05/22 12:32:43;;;;;;;1.17;1.00;;;;;;;;;;5049717;28;20124;-61
2022/05/22 12:35:09;;;;;;;1.52;1.08;;;;;;;;;;5052011;28;20028;-61
2022/05/22 12:37:40;;;;;;;3.67;1.30;;;;;;;;;;5053127;28;20115;-61
2022/05/22 12:40:36;;;;;;;1.58;1.00;;;;;;;;;;5053492;28;20033;-60
2022/05/22 12:43:05;;;;;;;2.95;1.30;;;;;;;;;;5049835;28;20401;-61
2022/05/22 12:45:32;;;;;;;1.75;1.15;;;;;;;;;;5050590;28;20406;-61
2022/05/22 12:48:24;;;;;;;2.35;1.40;;;;;;;;;;5051588;28;20044;-61
2022/05/22 12:51:10;;;;;;;1.98;1.15;;;;;;;;;;5048930;28;20033;-61
2022/05/22 12:53:46;;;;;;;1.42;1.13;;;;;;;;;;5048863;28;20112;-62
2022/05/22 12:56:28;;;;;;;1.88;1.10;;;;;;;;;;5046502;28;20509;-60
2022/05/22 12:59:00;;;;;;;2.38;1.40;;;;;;;;;;5049012;28;20460;-61
2022/05/22 13:01:31;;;;;;;3.85;1.20;;;;;;;;;;5048753;28;20530;-61
2022/05/22 13:04:00;;;;;;;2.85;1.00;;;;;;;;;;5050746;28;20432;-61
2022/05/22 13:06:44;;;;;;;2.25;1.10;;;;;;;;;;5047892;28;20036;-60
2022/05/22 13:09:32;;;;;;;3.00;1.40;;;;;;;;;;5050539;28;20032;-60
2022/05/22 13:12:13;;;;;;;2.13;1.35;;;;;;;;;;5048963;28;20067;-61
2022/05/22 13:14:47;;;;;;;2.50;1.40;;;;;;;;;;5052103;28;20087;-61
2022/05/22 13:17:16;;;;;;;3.47;1.20;;;;;;;;;;5054910;28;20025;-61
2022/05/22 13:19:55;;;;;;;3.20;1.35;;;;;;;;;;5053249;28;20028;-61
2022/05/22 13:22:44;;;;;;;1.30;1.10;;;;;;;;;;5045270;28;20024;-61
2022/05/22 13:25:27;;;;;;;2.78;1.35;;;;;;;;;;5047436;28;20561;-61
2022/05/22 13:27:53;;;;;;;2.85;1.27;;;;;;;;;;5050771;28;20033;-62
2022/05/22 13:30:29;;;;;;;2.03;0.98;;;;;;;;;;5054607;28;20075;-61
2022/05/22 13:33:07;;;;;;;2.13;1.15;;;;;;;;;;5052173;28;20032;-61
2022/05/22 13:35:36;;;;;;;2.30;1.10;;;;;;;;;;5045157;28;20078;-61
2022/05/22 13:38:04;;;;;;;3.83;1.15;;;;;;;;;;5051183;28;20350;-61
2022/05/22 13:40:53;;;;;;;3.47;1.20;;;;;;;;;;5050466;28;20037;-60
2022/05/22 13:43:39;;;;;;;3.55;1.60;;;;;;;;;;5055248;28;20041;-61
2022/05/22 13:47:02;;;;;;;1.45;1.00;;;;;;;;;;5045299;28;20032;-61
2022/05/22 13:49:43;;;;;;;1.90;1.10;;;;;;;;;;5050707;28;20122;-61
2022/05/22 13:52:36;;;;;;;1.95;1.20;;;;;;;;;;5049537;28;20040;-62
2022/05/22 13:55:16;;;;;;;1.95;1.10;;;;;;;;;;5045894;28;20032;-61
2022/05/22 13:58:10;;;;;;;3.38;1.20;;;;;;;;;;5048538;28;20024;-58
2022/05/22 14:00:40;;;;;;;3.33;1.00;;;;;;;;;;5049053;28;20025;-60
2022/05/22 14:03:26;;;;;;;4.20;1.02;;;;;;;;;;5048903;28;20455;-59
2022/05/22 14:05:56;;;;;;;2.60;1.08;;;;;;;;;;5046486;28;20028;-60
2022/05/22 14:08:25;;;;;;;4.78;1.13;;;;;;;;;;5047600;28;20033;-59
2022/05/22 14:11:01;;;;;;;3.80;1.08;;;;;;;;;;5045999;28;20021;-57
2022/05/22 14:13:28;;;;;;;1.27;0.80;;;;;;;;;;5050291;28;20501;-60
2022/05/22 14:15:57;;;;;;;2.08;1.00;;;;;;;;;;5050668;28;20064;-59
2022/05/22 14:18:26;;;;;;;2.00;1.17;;;;;;;;;;5045639;28;20036;-59
2022/05/22 14:20:52;;;;;;;;;;;;;;;;;;5048517;28;20021;-58
2022/05/22 14:23:23;;;;;;;3.95;0.95;;;;;;;;;;5049026;28;19916;-58
2022/05/22 14:25:58;;;;;;;4.43;1.30;;;;;;;;;;5045692;28;20052;-59
2022/05/22 14:28:36;;;;;;;4.82;1.30;;;;;;;;;;5047435;28;20102;-60
2022/05/22 14:31:02;;;;;;;2.05;1.30;;;;;;;;;;5042965;28;20376;-60
2022/05/22 14:33:34;;;;;;;2.40;1.45;;;;;;;;;;5049694;28;20025;-61
2022/05/22 14:36:10;;;;;;;4.20;1.13;;;;;;;;;;5049116;28;20025;-60
2022/05/22 14:38:39;;;;;;;5.28;1.40;;;;;;;;;;5045902;28;20036;-61
2022/05/22 14:41:15;;;;;;;4.57;1.23;;;;;;;;;;5049812;28;20082;-59
2022/05/22 14:43:56;;;;;;;3.72;1.60;;;;;;;;;;5049749;28;20545;-59
2022/05/22 14:46:21;;;;;;;4.57;1.70;;;;;;;;;;5051514;28;20033;-59
2022/05/22 14:48:48;;;;;;;2.20;1.50;;;;;;;;;;5048917;28;20039;-58
2022/05/22 14:51:27;;;;;;;4.97;1.50;;;;;;;;;;5045910;28;20079;-58
2022/05/22 14:54:06;;;;;;;3.80;1.30;;;;;;;;;;5047420;28;20049;-61
2022/05/22 14:56:34;;;;;;;3.53;1.30;;;;;;;;;;5044421;28;20060;-60
2022/05/22 14:59:04;;;;;;;6.50;1.40;;;;;;;;;;5046382;28;20029;-59
2022/05/22 15:01:39;;;;;;;3.75;1.17;;;;;;;;;;5049516;28;20033;-59
2022/05/22 15:04:11;;;;;;;5.63;1.27;;;;;;;;;;5045048;28;20044;-60
2022/05/22 15:06:48;;;;;;;1.63;1.17;;;;;;;;;;5045360;28;20407;-58
2022/05/22 15:09:35;;;;;;;1.65;1.02;;;;;;;;;;5046551;28;20087;-58
2022/05/22 15:12:08;;;;;;;4.47;1.38;;;;;;;;;;5048872;28;20060;-58
2022/05/22 15:14:46;;;;;;;2.65;1.23;;;;;;;;;;5049336;28;20032;-58
2022/05/22 15:17:28;;;;;;;4.55;1.40;;;;;;;;;;5039676;28;20048;-59
2022/05/22 15:19:59;;;;;;;7.32;1.98;;;;;;;;;;5046942;28;20029;-59
2022/05/22 15:25:27;;;;;;;5.25;2.00;;;;;;;;;;5050053;28;20534;-59
2022/05/22 15:27:58;;;;;;;4.35;1.98;;;;;;;;;;5046132;28;20502;-58
2022/05/22 15:30:28;;;;;;;3.92;1.80;;;;;;;;;;5047804;28;20033;-58
2022/05/22 15:33:05;;;;;;;4.60;1.65;;;;;;;;;;5042680;28;20056;-59
2022/05/22 15:35:31;;;;;;;3.17;1.30;;;;;;;;;;5050941;28;20024;-57
2022/05/22 15:37:56;;;;;;;3.45;1.45;;;;;;;;;;5042424;28;20032;-58
2022/05/22 15:40:22;;;;;;;4.80;1.58;;;;;;;;;;5049009;28;20059;-60
2022/05/22 15:42:59;;;;;;;2.97;1.60;;;;;;;;;;5049591;28;20032;-59
2022/05/22 15:45:25;;;;;;;3.38;1.63;;;;;;;;;;5046939;28;20606;-59
2022/05/22 15:51:11;;;;;;;5.90;1.80;;;;;;;;;;5046139;28;20040;-61
2022/05/22 15:53:38;;;;;;;5.40;2.00;;;;;;;;;;5046952;28;20134;-60
2022/05/22 15:56:05;;;;;;;5.03;1.60;;;;;;;;;;5044751;28;20394;-58
2022/05/22 15:58:30;;;;;;;4.88;1.80;;;;;;;;;;5047517;28;20090;-60